Edgerton, Minnesota
Current Conditions -  °F | °C
As of 12:34 AM on Friday 31 Oct 2014 (Local Time) from KPQN Reporting Station
Clear Clear  
Wind Chill: 19°   Ceiling: Unl
Heat Index: 28°   Visibility: 10mi
Dew Point: 19°   Wind: 10mph
Humidity: 69%   Direction: 10°N
Pressure: 30.44"   Gusts: 22mph
Location:  43.87°N, 96.13°W
Report Text: KPQN 310534Z AUTO 01009G19KT 10SM CLR M02/M07 A3044 RMK AO2
Loading
Personal Weather Stations






























Interactive Weather Map
Tropical Storm Tracking
New forecast layout! Learn more

10-Day Weather Forecast

Advertisements
Track Severe Weather on mobile